Time;durP1;ratioP1;P1;durP2;ratioP2;P2;SDS_P1;SDS_P2;PMS_P1;PMS_P2;Temp;Humidity;BMP_temperature;BMP_pressure;BME280_temperature;BME280_humidity;BME280_pressure;Samples;Min_cycle;Max_cycle;Signal;HPM_P1;HPM_P2
2022/02/09 00:09:48;;;;;;;5.07;2.30;;;;;;;;;;19822371;30;20058;-70
2022/02/09 02:02:25;;;;;;;5.45;3.17;;;;;;;;;;19816368;30;20058;-69
2022/02/09 02:12:28;;;;;;;4.57;2.90;;;;;;;;;;19815453;30;20505;-74
2022/02/09 02:33:08;;;;;;;6.57;3.08;;;;;;;;;;19819380;30;20390;-72
2022/02/09 03:14:45;;;;;;;8.27;3.50;;;;;;;;;;19820712;29;20146;-73
2022/02/09 04:05:57;;;;;;;5.93;3.63;;;;;;;;;;19823839;30;20047;-63
2022/02/09 04:16:11;;;;;;;7.10;3.90;;;;;;;;;;19807591;30;20093;-65
2022/02/09 04:57:13;;;;;;;7.95;4.05;;;;;;;;;;19820676;30;20413;-71
2022/02/09 05:17:58;;;;;;;7.55;3.90;;;;;;;;;;19847105;29;20062;-71
2022/02/09 05:28:08;;;;;;;7.13;3.60;;;;;;;;;;19819159;30;20447;-64
2022/02/09 05:38:12;;;;;;;5.10;4.03;;;;;;;;;;19820985;30;20055;-67
2022/02/09 05:58:45;;;;;;;5.88;3.78;;;;;;;;;;19817136;30;20147;-68
2022/02/09 06:08:48;;;;;;;8.75;4.35;;;;;;;;;;19800499;30;20063;-62
2022/02/09 06:29:12;;;;;;;7.22;3.70;;;;;;;;;;19815558;30;20497;-62
2022/02/09 06:39:16;;;;;;;9.52;4.55;;;;;;;;;;19814272;30;20142;-63
2022/02/09 06:49:18;;;;;;;7.22;3.97;;;;;;;;;;19822798;29;20501;-62
2022/02/09 06:59:34;;;;;;;10.48;4.45;;;;;;;;;;19827709;30;20059;-70
2022/02/09 07:09:40;;;;;;;7.97;4.32;;;;;;;;;;19828340;30;20055;-71
2022/02/09 07:19:44;;;;;;;9.57;4.60;;;;;;;;;;19827232;29;20117;-71
2022/02/09 07:29:47;;;;;;;15.73;7.72;;;;;;;;;;19826423;30;20047;-65
2022/02/09 07:39:49;;;;;;;11.43;5.32;;;;;;;;;;19826130;30;20063;-69
2022/02/09 07:50:15;;;;;;;7.07;4.70;;;;;;;;;;19825414;30;20058;-65
2022/02/09 08:00:15;;;;;;;10.82;4.55;;;;;;;;;;19823692;29;20141;-62
2022/02/09 08:10:28;;;;;;;23.42;13.88;;;;;;;;;;19822588;30;20071;-62
2022/02/09 08:31:23;;;;;;;10.20;4.70;;;;;;;;;;19807050;30;20093;-72
2022/02/09 08:41:23;;;;;;;11.00;4.57;;;;;;;;;;19821454;30;20059;-71
2022/02/09 08:51:27;;;;;;;10.77;4.72;;;;;;;;;;19820974;30;20059;-70
2022/02/09 09:01:42;;;;;;;11.38;5.80;;;;;;;;;;19819392;30;20055;-70
2022/02/09 09:14:39;;;;;;;13.67;5.63;;;;;;;;;;19803555;29;20059;-70
2022/02/09 10:34:27;;;;;;;11.30;6.47;;;;;;;;;;19829821;30;20409;-66
2022/02/09 10:44:47;;;;;;;13.60;7.50;;;;;;;;;;19828974;30;20064;-66
2022/02/09 10:54:48;;;;;;;11.35;6.18;;;;;;;;;;19827714;30;20493;-68
2022/02/09 11:04:51;;;;;;;8.02;5.85;;;;;;;;;;19827181;30;20117;-66
2022/02/09 11:14:52;;;;;;;9.60;5.00;;;;;;;;;;19825605;29;20051;-59
2022/02/09 11:25:17;;;;;;;9.00;5.68;;;;;;;;;;19819502;29;20095;-63
2022/02/09 11:35:34;;;;;;;11.75;6.95;;;;;;;;;;19824443;29;20051;-59
2022/02/09 12:16:41;;;;;;;15.90;5.63;;;;;;;;;;19666265;30;19926;-59
2022/02/09 12:27:12;;;;;;;16.65;6.18;;;;;;;;;;19665661;30;20526;-59
2022/02/09 12:37:15;;;;;;;7.90;3.83;;;;;;;;;;19625443;30;20143;-56
2022/02/09 12:47:16;;;;;;;12.13;4.70;;;;;;;;;;19760108;29;20107;-67
2022/02/09 12:57:18;;;;;;;10.73;4.80;;;;;;;;;;19897811;29;20054;-68
2022/02/09 13:07:20;;;;;;;15.02;6.65;;;;;;;;;;19893969;29;20112;-66
2022/02/09 15:21:18;;;;;;;7.20;4.68;;;;;;;;;;19827427;29;20056;-67
2022/02/09 15:31:25;;;;;;;7.57;5.57;;;;;;;;;;19826997;29;20120;-68
2022/02/09 15:41:37;;;;;;;8.35;6.15;;;;;;;;;;19825904;29;20167;-66
2022/02/09 16:23:03;;;;;;;10.15;6.88;;;;;;;;;;19822846;29;20130;-68
2022/02/09 16:33:42;;;;;;;12.63;7.75;;;;;;;;;;19823915;30;20105;-67
2022/02/09 17:24:47;;;;;;;12.90;8.23;;;;;;;;;;19884295;29;20055;-64
2022/02/09 17:35:09;;;;;;;13.80;9.68;;;;;;;;;;19891037;29;20067;-60
2022/02/09 18:05:55;;;;;;;19.15;13.07;;;;;;;;;;19846437;29;20123;-56
2022/02/09 19:07:41;;;;;;;23.45;14.13;;;;;;;;;;19753795;30;20059;-55
2022/02/09 19:48:18;;;;;;;24.65;15.48;;;;;;;;;;19824575;30;20455;-56
2022/02/09 19:58:22;;;;;;;19.88;12.85;;;;;;;;;;19822587;29;20095;-59
2022/02/09 20:08:24;;;;;;;24.15;14.07;;;;;;;;;;19807719;30;20055;-60
2022/02/09 20:18:31;;;;;;;29.90;20.98;;;;;;;;;;19822810;29;20094;-54
2022/02/09 20:28:33;;;;;;;23.02;15.40;;;;;;;;;;19804857;30;20051;-56
2022/02/09 20:38:36;;;;;;;20.58;9.30;;;;;;;;;;19820421;30;20402;-54
2022/02/09 20:48:38;;;;;;;15.90;10.50;;;;;;;;;;19817740;30;20055;-55
2022/02/09 20:58:43;;;;;;;16.67;9.73;;;;;;;;;;19818276;30;20059;-55
2022/02/09 21:09:02;;;;;;;15.93;9.98;;;;;;;;;;19817006;29;20047;-59
2022/02/09 22:20:55;;;;;;;14.18;8.32;;;;;;;;;;19830454;29;20516;-56
